createdAt,value
2023-04-09T00:00:18.199Z,70.95
2023-04-09T00:02:45.453Z,70.50
2023-04-09T00:05:12.669Z,63.65
2023-04-09T00:07:39.722Z,69.82
2023-04-09T00:10:07.691Z,64.85
2023-04-09T00:12:34.727Z,62.20
2023-04-09T00:15:01.831Z,64.63
2023-04-09T00:17:28.869Z,63.70
2023-04-09T00:19:56.142Z,65.13
2023-04-09T00:22:23.307Z,61.55
2023-04-09T00:24:50.316Z,64.63
2023-04-09T00:27:17.417Z,61.85
2023-04-09T00:29:44.544Z,66.30
2023-04-09T00:32:11.562Z,60.85
2023-04-09T00:34:38.914Z,67.47
2023-04-09T00:37:06.577Z,64.18
2023-04-09T00:39:33.585Z,60.15
2023-04-09T00:42:04.784Z,61.58
2023-04-09T00:44:31.776Z,59.80
2023-04-09T00:47:02.813Z,54.60
2023-04-09T00:49:29.927Z,49.63
2023-04-09T00:51:57.065Z,52.47
2023-04-09T00:54:24.020Z,54.08
2023-04-09T00:56:51.457Z,53.45
2023-04-09T00:59:19.318Z,52.90
2023-04-09T01:01:46.361Z,56.47
2023-04-09T01:04:13.641Z,54.85
2023-04-09T01:06:59.458Z,52.67
2023-04-09T01:09:34.163Z,51.65
2023-04-09T01:12:15.052Z,54.35
2023-04-09T01:15:03.281Z,52.45
2023-04-09T01:18:07.547Z,52.75
2023-04-09T01:20:43.418Z,53.50
2023-04-09T01:23:50.598Z,50.45
2023-04-09T01:27:04.249Z,51.38
2023-04-09T01:30:04.674Z,51.22
2023-04-09T01:32:35.407Z,52.28
2023-04-09T01:35:04.676Z,49.97
2023-04-09T01:37:32.653Z,50.83
2023-04-09T01:39:59.777Z,51.00
2023-04-09T01:42:27.705Z,51.53
2023-04-09T01:44:55.251Z,50.08
2023-04-09T01:47:23.420Z,49.97
2023-04-09T01:49:51.765Z,53.00
2023-04-09T01:52:18.917Z,51.42
2023-04-09T01:54:46.613Z,52.22
2023-04-09T01:57:13.630Z,51.75
2023-04-09T01:59:40.764Z,52.75
2023-04-09T02:02:19.131Z,54.83
2023-04-09T02:04:54.238Z,56.92
2023-04-09T02:07:40.716Z,51.03
2023-04-09T02:12:42.964Z,50.72
2023-04-09T02:15:12.773Z,52.03
2023-04-09T02:17:39.961Z,50.15
2023-04-09T02:20:08.275Z,51.88
2023-04-09T02:22:35.434Z,50.67
2023-04-09T02:25:02.424Z,52.10
2023-04-09T02:27:29.589Z,51.63
2023-04-09T02:29:56.624Z,51.50
2023-04-09T02:32:23.692Z,52.97
2023-04-09T02:34:50.692Z,50.08
2023-04-09T02:37:18.412Z,55.05
2023-04-09T02:39:46.838Z,50.25
2023-04-09T02:42:14.068Z,51.72
2023-04-09T02:44:41.228Z,51.28
2023-04-09T02:47:08.394Z,55.03
2023-04-09T02:49:37.484Z,50.63
2023-04-09T02:52:04.704Z,58.67
2023-04-09T02:54:31.896Z,51.85
2023-04-09T02:57:01.989Z,50.30
2023-04-09T02:59:29.115Z,49.30
2023-04-09T03:01:56.465Z,52.00
2023-04-09T03:04:23.672Z,52.78
2023-04-09T03:06:51.616Z,53.85
2023-04-09T03:09:19.020Z,53.28
2023-04-09T03:11:45.986Z,52.13
2023-04-09T03:14:13.093Z,47.35
2023-04-09T03:16:40.318Z,48.85
2023-04-09T03:19:07.378Z,53.03
2023-04-09T03:21:37.390Z,50.40
2023-04-09T03:24:05.918Z,53.90
2023-04-09T03:26:36.482Z,55.83
2023-04-09T03:29:06.514Z,56.28
2023-04-09T03:31:33.920Z,50.15
2023-04-09T03:34:00.956Z,52.35
2023-04-09T03:36:29.050Z,50.05
2023-04-09T03:39:02.485Z,50.90
2023-04-09T03:41:38.465Z,49.53
2023-04-09T03:44:12.107Z,50.85
2023-04-09T03:46:57.860Z,53.97
2023-04-09T03:49:25.980Z,49.25
2023-04-09T03:51:55.787Z,52.22
2023-04-09T03:54:30.043Z,45.28
2023-04-09T03:56:58.337Z,48.80
2023-04-09T03:59:26.211Z,48.42
2023-04-09T04:01:53.351Z,50.22
2023-04-09T04:04:23.379Z,51.42
2023-04-09T04:06:55.392Z,47.00
2023-04-09T04:09:29.372Z,49.15
2023-04-09T04:12:07.438Z,47.08
2023-04-09T04:14:52.956Z,49.47
2023-04-09T04:17:30.748Z,46.22
2023-04-09T04:19:58.646Z,49.10
2023-04-09T04:22:26.315Z,43.85
2023-04-09T04:24:56.224Z,44.58
2023-04-09T04:27:23.904Z,45.05
2023-04-09T04:29:52.462Z,46.42
2023-04-09T04:32:35.735Z,47.17
2023-04-09T04:35:07.419Z,47.47
2023-04-09T04:37:35.321Z,44.35
2023-04-09T04:40:03.932Z,47.53
2023-04-09T04:42:34.363Z,43.88
2023-04-09T04:45:09.068Z,42.42
2023-04-09T04:47:43.227Z,44.17
2023-04-09T04:50:15.092Z,45.80
2023-04-09T04:52:55.244Z,43.05
2023-04-09T04:55:26.077Z,45.17
2023-04-09T04:57:53.157Z,44.28
2023-04-09T05:00:23.948Z,40.83
2023-04-09T05:02:51.523Z,41.40
2023-04-09T05:05:25.455Z,42.47
2023-04-09T05:07:55.276Z,42.60
2023-04-09T05:10:22.960Z,43.70
2023-04-09T05:12:50.230Z,43.08
2023-04-09T05:15:27.947Z,41.95
2023-04-09T05:17:54.989Z,43.25
2023-04-09T05:20:22.482Z,45.17
2023-04-09T05:23:00.478Z,42.78
2023-04-09T05:25:32.370Z,40.38
2023-04-09T05:28:01.308Z,41.70
2023-04-09T05:30:30.358Z,44.33
2023-04-09T05:33:01.658Z,40.70
2023-04-09T05:35:30.439Z,39.70
2023-04-09T05:37:57.941Z,40.28
2023-04-09T05:40:24.979Z,38.88
2023-04-09T05:42:53.292Z,42.40
2023-04-09T05:45:32.930Z,40.08
2023-04-09T05:47:59.963Z,39.97
2023-04-09T05:50:27.177Z,40.22
2023-04-09T05:52:55.880Z,37.45
2023-04-09T05:55:31.488Z,42.53
2023-04-09T05:58:00.742Z,38.67
2023-04-09T06:00:28.866Z,40.33
2023-04-09T06:02:56.310Z,39.85
2023-04-09T06:05:23.420Z,39.85
2023-04-09T06:07:50.648Z,45.20
2023-04-09T06:10:17.853Z,40.10
2023-04-09T06:12:47.124Z,38.65
2023-04-09T06:15:15.090Z,39.85
2023-04-09T06:17:42.132Z,40.17
2023-04-09T06:20:09.976Z,39.63
2023-04-09T06:22:37.556Z,40.17
2023-04-09T06:25:05.024Z,40.22
2023-04-09T06:27:32.142Z,39.83
2023-04-09T06:29:59.221Z,42.45
2023-04-09T06:32:26.444Z,39.60
2023-04-09T06:34:53.427Z,40.35
2023-04-09T06:37:20.472Z,41.03
2023-04-09T06:40:00.024Z,40.17
2023-04-09T06:42:28.398Z,41.78
2023-04-09T06:44:59.476Z,41.28
2023-04-09T06:47:26.561Z,40.05
2023-04-09T06:49:53.558Z,41.33
2023-04-09T06:52:20.577Z,42.45
2023-04-09T06:54:47.659Z,41.85
2023-04-09T06:57:14.610Z,42.72
2023-04-09T06:59:41.566Z,42.42
2023-04-09T07:02:09.610Z,44.58
2023-04-09T07:04:36.921Z,46.10
2023-04-09T07:07:03.985Z,43.90
2023-04-09T07:09:31.571Z,44.90
2023-04-09T07:11:58.692Z,44.47
2023-04-09T07:14:25.802Z,42.15
2023-04-09T07:16:52.845Z,48.03
2023-04-09T07:19:19.831Z,46.70
2023-04-09T07:21:46.806Z,45.55
2023-04-09T07:24:13.772Z,47.30
2023-04-09T07:26:41.487Z,44.30
2023-04-09T07:29:08.527Z,44.70
2023-04-09T07:31:36.193Z,43.88
2023-04-09T07:34:03.501Z,44.60
2023-04-09T07:36:31.835Z,45.78
2023-04-09T07:38:58.931Z,43.15
2023-04-09T07:41:26.252Z,42.47
2023-04-09T07:43:53.251Z,41.50
2023-04-09T07:46:24.447Z,43.70
2023-04-09T07:48:52.006Z,44.92
2023-04-09T07:51:19.424Z,43.10
2023-04-09T07:53:46.564Z,44.17
2023-04-09T07:56:13.763Z,43.72
2023-04-09T07:58:40.951Z,45.08
2023-04-09T08:01:08.735Z,42.20
2023-04-09T08:03:36.867Z,42.85
2023-04-09T08:06:04.561Z,44.55
2023-04-09T08:08:31.668Z,43.03
2023-04-09T08:10:58.659Z,44.50
2023-04-09T08:13:25.902Z,41.70
2023-04-09T08:15:52.995Z,42.88
2023-04-09T08:18:20.124Z,43.03
2023-04-09T08:20:47.107Z,41.60
2023-04-09T08:23:14.097Z,45.20
2023-04-09T08:25:41.272Z,41.30
2023-04-09T08:28:08.516Z,42.80
2023-04-09T08:30:35.578Z,43.58
2023-04-09T08:33:02.846Z,43.80
2023-04-09T08:35:33.421Z,45.22
2023-04-09T08:38:00.509Z,41.03
2023-04-09T08:40:27.603Z,42.88
2023-04-09T08:42:59.309Z,42.95
2023-04-09T08:45:26.502Z,40.78
2023-04-09T08:47:53.670Z,38.97
2023-04-09T08:50:20.968Z,38.40
2023-04-09T08:52:48.686Z,39.22
2023-04-09T08:55:15.895Z,39.78
2023-04-09T08:57:43.228Z,38.22
2023-04-09T09:00:11.294Z,39.08
2023-04-09T09:02:39.449Z,39.70
2023-04-09T09:05:07.326Z,38.95
2023-04-09T09:07:34.462Z,36.05
2023-04-09T09:10:04.505Z,35.63
2023-04-09T09:12:35.603Z,37.75
2023-04-09T09:15:03.824Z,35.30
2023-04-09T09:17:31.208Z,34.55
2023-04-09T09:19:59.090Z,38.72
2023-04-09T09:22:26.280Z,35.85
2023-04-09T09:24:53.714Z,35.65
2023-04-09T09:27:40.386Z,36.13
2023-04-09T09:30:08.637Z,35.47
2023-04-09T09:32:36.219Z,36.17
2023-04-09T09:35:06.288Z,37.15
2023-04-09T09:37:34.248Z,34.55
2023-04-09T09:40:01.856Z,34.20
2023-04-09T09:42:28.849Z,34.67
2023-04-09T09:44:56.478Z,34.80
2023-04-09T09:47:25.317Z,34.33
2023-04-09T09:49:52.633Z,34.08
2023-04-09T09:52:28.581Z,38.13
2023-04-09T09:54:58.846Z,36.35
2023-04-09T09:57:29.666Z,37.40
2023-04-09T10:00:02.453Z,37.15
2023-04-09T10:02:45.097Z,34.55
2023-04-09T10:05:12.412Z,32.33
2023-04-09T10:07:41.023Z,32.67
2023-04-09T10:10:09.258Z,33.55
2023-04-09T10:12:36.489Z,36.63
2023-04-09T10:15:06.163Z,33.45
2023-04-09T10:17:33.349Z,34.03
2023-04-09T10:20:27.461Z,32.88
2023-04-09T10:22:55.344Z,31.85
2023-04-09T10:25:22.546Z,31.10
2023-04-09T10:28:01.485Z,31.70
2023-04-09T10:30:33.115Z,31.10
2023-04-09T10:33:17.525Z,33.17
2023-04-09T10:35:47.955Z,31.27
2023-04-09T10:38:15.584Z,30.30
2023-04-09T10:40:51.941Z,29.90
2023-04-09T10:43:21.113Z,29.25
2023-04-09T10:45:53.311Z,27.63
2023-04-09T10:48:21.970Z,26.33
2023-04-09T10:50:52.323Z,29.33
2023-04-09T10:53:24.782Z,27.50
2023-04-09T10:55:53.917Z,28.85
2023-04-09T10:58:21.385Z,29.02
2023-04-09T11:00:50.872Z,26.10
2023-04-09T11:03:27.095Z,26.95
2023-04-09T11:06:09.310Z,28.20
2023-04-09T11:08:41.614Z,28.35
2023-04-09T11:11:08.733Z,27.50
2023-04-09T11:13:36.031Z,25.98
2023-04-09T11:16:07.120Z,26.42
2023-04-09T11:18:36.905Z,26.20
2023-04-09T11:21:07.859Z,25.05
2023-04-09T11:23:35.849Z,24.25
2023-04-09T11:26:03.057Z,26.20
2023-04-09T11:28:30.039Z,25.52
2023-04-09T11:30:57.104Z,25.90
2023-04-09T11:33:33.320Z,26.83
2023-04-09T11:36:00.436Z,24.38
2023-04-09T11:38:27.472Z,30.10
2023-04-09T11:40:57.964Z,24.05
2023-04-09T11:43:25.362Z,24.73
2023-04-09T11:46:00.265Z,26.33
2023-04-09T11:48:27.400Z,23.38
2023-04-09T11:50:54.728Z,22.58
2023-04-09T11:53:23.707Z,22.88
2023-04-09T11:55:52.608Z,24.33
2023-04-09T11:58:24.439Z,22.15
2023-04-09T12:00:58.484Z,22.67
2023-04-09T12:03:33.311Z,23.95
2023-04-09T12:06:03.374Z,22.15
2023-04-09T12:08:31.359Z,22.33
2023-04-09T12:11:12.711Z,24.30
2023-04-09T12:13:43.243Z,22.90
2023-04-09T12:16:12.373Z,23.55
2023-04-09T12:18:40.196Z,23.75
2023-04-09T12:21:07.211Z,22.52
2023-04-09T12:23:35.005Z,23.58
2023-04-09T12:26:02.545Z,25.52
2023-04-09T12:28:29.870Z,25.80
2023-04-09T12:30:59.324Z,23.52
2023-04-09T12:33:26.452Z,24.02
2023-04-09T12:35:53.558Z,25.02
2023-04-09T12:38:20.944Z,24.45
2023-04-09T12:40:48.063Z,24.40
2023-04-09T12:43:15.650Z,26.20
2023-04-09T12:45:42.894Z,23.90
2023-04-09T12:48:10.135Z,26.33
2023-04-09T12:50:37.342Z,23.00
2023-04-09T12:53:04.434Z,22.35
2023-04-09T12:55:31.621Z,21.98
2023-04-09T12:57:58.625Z,23.13
2023-04-09T13:00:25.861Z,22.23
2023-04-09T13:02:53.166Z,23.77
2023-04-09T13:05:20.443Z,24.65
2023-04-09T13:07:47.617Z,24.02
2023-04-09T13:10:14.726Z,24.45
2023-04-09T13:12:41.984Z,23.35
2023-04-09T13:15:09.526Z,24.35
2023-04-09T13:17:36.613Z,21.77
2023-04-09T13:20:03.868Z,20.63
2023-04-09T13:22:31.196Z,21.17
2023-04-09T13:24:58.183Z,21.50
2023-04-09T13:27:25.446Z,22.73
2023-04-09T13:29:52.532Z,23.67
2023-04-09T13:32:22.227Z,23.60
2023-04-09T13:34:49.428Z,22.90
2023-04-09T13:37:17.304Z,21.85
2023-04-09T13:39:44.878Z,21.77
2023-04-09T13:42:14.015Z,20.95
2023-04-09T13:44:44.587Z,20.98
2023-04-09T13:47:14.295Z,20.33
2023-04-09T13:49:42.124Z,21.10
2023-04-09T13:52:10.714Z,20.33
2023-04-09T13:54:38.175Z,20.05
2023-04-09T13:57:05.258Z,20.13
2023-04-09T13:59:32.410Z,20.95
2023-04-09T14:01:59.446Z,21.23
2023-04-09T14:04:26.714Z,20.75
2023-04-09T14:06:53.919Z,21.88
2023-04-09T14:09:21.094Z,22.80
2023-04-09T14:11:48.268Z,21.08
2023-04-09T14:14:15.644Z,19.58
2023-04-09T14:16:42.700Z,19.85
2023-04-09T14:19:10.406Z,19.02
2023-04-09T14:21:37.571Z,18.38
2023-04-09T14:24:04.790Z,15.80
2023-04-09T14:26:31.921Z,14.75
2023-04-09T14:28:59.032Z,15.07
2023-04-09T14:31:26.348Z,14.73
2023-04-09T14:33:53.525Z,14.68
2023-04-09T14:36:20.659Z,14.65
2023-04-09T14:38:49.119Z,14.40
2023-04-09T14:41:17.364Z,14.18
2023-04-09T14:43:44.610Z,13.88
2023-04-09T14:46:12.170Z,13.60
2023-04-09T14:48:40.053Z,14.18
2023-04-09T14:51:10.815Z,14.35
2023-04-09T14:53:38.480Z,15.00
2023-04-09T14:56:06.626Z,13.43
2023-04-09T14:58:33.801Z,13.77
2023-04-09T15:01:01.124Z,13.25
2023-04-09T15:03:28.473Z,13.85
2023-04-09T15:05:55.851Z,14.40
2023-04-09T15:08:23.654Z,13.38
2023-04-09T15:10:51.177Z,12.93
2023-04-09T15:13:18.375Z,13.43
2023-04-09T15:15:45.722Z,14.02
2023-04-09T15:18:12.803Z,14.13
2023-04-09T15:20:41.564Z,14.45
2023-04-09T15:23:08.973Z,13.55
2023-04-09T15:25:36.362Z,13.93
2023-04-09T15:28:04.615Z,13.50
2023-04-09T15:30:32.504Z,13.45
2023-04-09T15:32:59.579Z,13.68
2023-04-09T15:35:29.382Z,13.77
2023-04-09T15:37:57.321Z,14.30
2023-04-09T15:40:24.426Z,17.13
2023-04-09T15:42:51.659Z,14.90
2023-04-09T15:45:18.807Z,13.77
2023-04-09T15:47:46.471Z,14.80
2023-04-09T15:50:14.531Z,16.38
2023-04-09T15:52:41.588Z,14.60
2023-04-09T15:55:09.430Z,14.23
2023-04-09T15:57:36.615Z,13.95
2023-04-09T16:00:04.189Z,15.07
2023-04-09T16:02:32.177Z,14.52
2023-04-09T16:04:59.201Z,15.00
2023-04-09T16:07:26.761Z,15.30
2023-04-09T16:09:53.833Z,15.35
2023-04-09T16:12:21.270Z,16.00
2023-04-09T16:14:48.331Z,16.25
2023-04-09T16:17:15.434Z,16.95
2023-04-09T16:19:43.200Z,15.63
2023-04-09T16:22:10.575Z,16.38
2023-04-09T16:24:37.898Z,15.25
2023-04-09T16:27:04.962Z,15.35
2023-04-09T16:29:32.094Z,14.95
2023-04-09T16:31:59.121Z,15.30
2023-04-09T16:34:26.240Z,15.68
2023-04-09T16:36:53.280Z,15.05
2023-04-09T16:39:20.386Z,15.13
2023-04-09T16:41:47.421Z,15.80
2023-04-09T16:44:14.516Z,15.80
2023-04-09T16:46:42.831Z,13.85
2023-04-09T16:49:10.078Z,14.70
2023-04-09T16:51:38.061Z,14.20
2023-04-09T16:54:05.289Z,15.27
2023-04-09T16:56:32.383Z,14.27
2023-04-09T16:58:59.431Z,14.70
2023-04-09T17:01:27.700Z,15.00
2023-04-09T17:03:55.992Z,14.13
2023-04-09T17:06:23.091Z,15.55
2023-04-09T17:08:50.164Z,14.43
2023-04-09T17:11:17.870Z,14.45
2023-04-09T17:13:45.138Z,15.55
2023-04-09T17:16:12.752Z,14.73
2023-04-09T17:18:39.714Z,13.90
2023-04-09T17:21:07.028Z,13.75
2023-04-09T17:23:34.081Z,14.68
2023-04-09T17:26:02.256Z,16.02
2023-04-09T17:28:29.460Z,13.82
2023-04-09T17:30:56.571Z,14.43
2023-04-09T17:33:23.826Z,15.13
2023-04-09T17:35:50.867Z,14.07
2023-04-09T17:38:21.175Z,14.35
2023-04-09T17:40:48.431Z,14.40
2023-04-09T17:43:15.641Z,14.80
2023-04-09T17:45:43.200Z,15.63
2023-04-09T17:48:10.805Z,15.20
2023-04-09T17:50:39.027Z,15.32
2023-04-09T17:53:06.151Z,15.02
2023-04-09T17:55:33.372Z,15.23
2023-04-09T17:58:00.482Z,14.68
2023-04-09T18:00:27.648Z,14.95
2023-04-09T18:02:54.925Z,14.98
2023-04-09T18:05:23.559Z,16.70
2023-04-09T18:07:51.657Z,19.15
2023-04-09T18:10:19.696Z,18.35
2023-04-09T18:12:46.801Z,23.73
2023-04-09T18:15:13.898Z,27.27
2023-04-09T18:17:41.069Z,25.40
2023-04-09T18:20:08.973Z,25.40
2023-04-09T18:22:36.192Z,23.38
2023-04-09T18:25:04.167Z,23.63
2023-04-09T18:27:31.478Z,22.35
2023-04-09T18:29:59.263Z,24.85
2023-04-09T18:32:26.786Z,23.25
2023-04-09T18:34:53.913Z,22.70
2023-04-09T18:37:21.430Z,20.48
2023-04-09T18:39:48.486Z,22.00
2023-04-09T18:42:15.580Z,19.60
2023-04-09T18:44:42.648Z,18.70
2023-04-09T18:47:11.329Z,18.27
2023-04-09T18:49:38.515Z,19.23
2023-04-09T18:52:06.107Z,20.58
2023-04-09T18:54:37.111Z,18.25
2023-04-09T18:57:04.277Z,20.60
2023-04-09T18:59:35.329Z,20.58
2023-04-09T19:02:05.109Z,21.15
2023-04-09T19:04:39.380Z,18.52
2023-04-09T19:07:07.080Z,30.13
2023-04-09T19:09:34.516Z,17.98
2023-04-09T19:12:01.818Z,17.98
2023-04-09T19:14:29.151Z,19.98
2023-04-09T19:16:57.128Z,25.83
2023-04-09T19:19:24.145Z,29.55
2023-04-09T19:21:51.263Z,30.92
2023-04-09T19:24:18.478Z,38.60
2023-04-09T19:26:45.626Z,56.58
2023-04-09T19:29:12.712Z,57.45
2023-04-09T19:31:41.391Z,65.85
2023-04-09T19:34:10.755Z,63.90
2023-04-09T19:36:37.915Z,59.95
2023-04-09T19:39:05.966Z,55.22
2023-04-09T19:41:33.131Z,49.50
2023-04-09T19:44:01.360Z,48.58
2023-04-09T19:46:28.601Z,49.20
2023-04-09T19:48:56.703Z,58.08
2023-04-09T19:51:23.951Z,59.17
2023-04-09T19:53:51.066Z,61.33
2023-04-09T19:56:18.907Z,61.85
2023-04-09T19:58:45.942Z,63.22
2023-04-09T20:01:13.106Z,64.03
2023-04-09T20:03:40.772Z,64.80
2023-04-09T20:06:09.916Z,65.35
2023-04-09T20:08:40.973Z,74.15
2023-04-09T20:11:08.174Z,91.30
2023-04-09T20:13:35.238Z,100.50
2023-04-09T20:16:02.460Z,109.60
2023-04-09T20:18:29.555Z,126.65
2023-04-09T20:20:56.594Z,119.75
2023-04-09T20:23:23.632Z,112.82
2023-04-09T20:25:55.265Z,115.10
2023-04-09T20:28:23.018Z,111.32
2023-04-09T20:30:50.562Z,110.75
2023-04-09T20:33:20.787Z,108.20
2023-04-09T20:35:48.276Z,105.63
2023-04-09T20:38:15.533Z,105.90
2023-04-09T20:40:42.600Z,102.03
2023-04-09T20:43:09.644Z,100.93
2023-04-09T20:45:36.715Z,102.07
2023-04-09T20:48:03.957Z,98.78
2023-04-09T20:50:31.140Z,101.93
2023-04-09T20:52:59.180Z,90.53
2023-04-09T20:55:26.480Z,86.75
2023-04-09T20:57:58.428Z,87.03
2023-04-09T21:00:25.619Z,87.65
2023-04-09T21:02:52.950Z,84.03
2023-04-09T21:05:23.999Z,77.47
2023-04-09T21:07:52.863Z,70.57
2023-04-09T21:10:20.478Z,70.45
2023-04-09T21:12:47.683Z,67.50
2023-04-09T21:15:14.895Z,60.17
2023-04-09T21:17:41.899Z,56.13
2023-04-09T21:20:09.715Z,53.33
2023-04-09T21:22:36.841Z,58.90
2023-04-09T21:25:04.375Z,56.65
2023-04-09T21:27:31.493Z,63.67
2023-04-09T21:29:58.879Z,70.57
2023-04-09T21:32:26.067Z,76.25
2023-04-09T21:34:53.380Z,76.05
2023-04-09T21:37:20.374Z,69.93
2023-04-09T21:39:48.739Z,75.35
2023-04-09T21:42:16.048Z,75.97
2023-04-09T21:44:43.034Z,73.10
2023-04-09T21:47:12.063Z,72.25
2023-04-09T21:49:40.048Z,77.10
2023-04-09T21:52:14.190Z,68.90
2023-04-09T21:54:45.473Z,72.88
2023-04-09T21:57:12.629Z,69.55
2023-04-09T21:59:41.313Z,74.22
2023-04-09T22:02:09.529Z,66.72
2023-04-09T22:04:36.945Z,67.75
2023-04-09T22:07:04.326Z,68.20
2023-04-09T22:09:31.551Z,68.47
2023-04-09T22:11:59.650Z,66.28
2023-04-09T22:14:29.500Z,63.08
2023-04-09T22:16:58.404Z,65.43
2023-04-09T22:19:26.586Z,61.88
2023-04-09T22:21:54.428Z,60.88
2023-04-09T22:24:27.032Z,63.00
2023-04-09T22:26:54.273Z,59.58
2023-04-09T22:29:21.411Z,57.05
2023-04-09T22:31:48.367Z,57.90
2023-04-09T22:34:21.348Z,56.88
2023-04-09T22:36:49.420Z,53.88
2023-04-09T22:39:16.998Z,55.35
2023-04-09T22:41:44.258Z,51.53
2023-04-09T22:44:11.294Z,53.13
2023-04-09T22:46:38.306Z,51.60
2023-04-09T22:49:06.338Z,54.92
2023-04-09T22:51:36.693Z,48.97
2023-04-09T22:54:03.828Z,51.35
2023-04-09T22:56:32.099Z,50.95
2023-04-09T22:58:59.360Z,48.88
2023-04-09T23:01:27.256Z,49.67
2023-04-09T23:03:54.629Z,50.05
2023-04-09T23:06:22.652Z,47.40
2023-04-09T23:08:50.544Z,50.47
2023-04-09T23:11:17.648Z,51.25
2023-04-09T23:13:44.735Z,49.53
2023-04-09T23:16:11.990Z,51.38
2023-04-09T23:18:39.404Z,49.97
2023-04-09T23:21:08.086Z,51.00
2023-04-09T23:23:36.218Z,51.50
2023-04-09T23:26:04.169Z,51.65
2023-04-09T23:28:32.033Z,53.30
2023-04-09T23:30:59.357Z,53.53
2023-04-09T23:33:26.789Z,54.10
2023-04-09T23:35:54.032Z,53.53
2023-04-09T23:38:21.117Z,51.38
2023-04-09T23:40:49.195Z,52.38
2023-04-09T23:43:17.370Z,53.40
2023-04-09T23:45:44.577Z,53.67
2023-04-09T23:48:12.609Z,55.50
2023-04-09T23:50:41.404Z,54.08
2023-04-09T23:53:08.578Z,54.65
2023-04-09T23:55:40.675Z,54.58
2023-04-09T23:58:08.321Z,53.50
